Time;durP1;ratioP1;P1;durP2;ratioP2;P2;SDS_P1;SDS_P2;PMS_P1;PMS_P2;Temp;Humidity;BMP_temperature;BMP_pressure;BME280_temperature;BME280_humidity;BME280_pressure;Samples;Min_cycle;Max_cycle;Signal;HPM_P1;HPM_P2
2022/03/16 00:01:58;;;;;;;8.07;6.05;;;;;12.10;102286.00;;;;4989640;28;20213;-76
2022/03/16 00:04:25;;;;;;;8.27;6.15;;;;;12.10;102295.00;;;;4991473;28;20979;-76
2022/03/16 00:06:52;;;;;;;8.40;5.78;;;;;12.10;102291.00;;;;4998541;28;20610;-75
2022/03/16 00:09:19;;;;;;;7.50;6.07;;;;;12.10;102299.00;;;;4991874;28;20560;-75
2022/03/16 00:11:48;;;;;;;8.40;6.28;;;;;12.00;102301.00;;;;4991868;28;20267;-75
2022/03/16 00:14:15;;;;;;;8.98;6.47;;;;;12.00;102298.00;;;;4991298;28;20236;-75
2022/03/16 00:16:42;;;;;;;9.43;5.93;;;;;12.00;102296.00;;;;4992142;28;20244;-75
2022/03/16 00:19:10;;;;;;;8.55;6.40;;;;;12.00;102296.00;;;;4992139;28;20205;-76
2022/03/16 00:21:37;;;;;;;8.85;6.70;;;;;12.00;102298.00;;;;4992431;28;20194;-75
2022/03/16 00:24:05;;;;;;;6.97;6.03;;;;;12.00;102296.00;;;;4993058;28;20260;-76
2022/03/16 00:26:32;;;;;;;9.18;6.20;;;;;11.90;102304.00;;;;4991996;28;20204;-75
2022/03/16 00:29:00;;;;;;;8.18;6.72;;;;;11.90;102303.00;;;;4990897;28;20201;-76
2022/03/16 00:31:28;;;;;;;10.25;6.65;;;;;11.90;102295.00;;;;4989104;28;20206;-76
2022/03/16 00:33:55;;;;;;;8.45;6.00;;;;;11.90;102299.00;;;;4989055;28;20204;-75
2022/03/16 00:36:22;;;;;;;9.60;7.25;;;;;11.80;102297.00;;;;4994559;28;20205;-76
2022/03/16 00:38:50;;;;;;;12.55;7.07;;;;;11.80;102303.00;;;;4980240;28;20264;-76
2022/03/16 00:41:17;;;;;;;9.88;7.10;;;;;11.80;102302.00;;;;5005502;28;20591;-76
2022/03/16 00:43:45;;;;;;;11.98;7.68;;;;;11.80;102312.00;;;;4992907;28;20205;-76
2022/03/16 00:46:14;;;;;;;8.00;6.40;;;;;11.80;102304.00;;;;4991831;28;21364;-76
2022/03/16 00:48:41;;;;;;;10.18;7.28;;;;;11.70;102307.00;;;;4992688;28;20197;-75
2022/03/16 00:51:10;;;;;;;9.40;6.93;;;;;11.70;102314.00;;;;4991514;28;20224;-76
2022/03/16 00:53:39;;;;;;;9.60;7.75;;;;;11.70;102308.00;;;;4992830;28;20213;-76
2022/03/16 00:56:08;;;;;;;9.70;7.70;;;;;11.70;102303.00;;;;4994745;28;20268;-76
2022/03/16 00:58:35;;;;;;;10.55;8.02;;;;;11.70;102298.00;;;;5008730;28;20828;-76
2022/03/16 01:01:04;;;;;;;9.88;7.50;;;;;11.70;102293.00;;;;4989440;28;20205;-76
2022/03/16 01:03:33;;;;;;;10.55;7.90;;;;;11.60;102289.00;;;;4993757;28;20264;-76
2022/03/16 01:06:00;;;;;;;13.27;8.02;;;;;11.60;102293.00;;;;4991615;28;20209;-76
2022/03/16 01:08:28;;;;;;;11.48;8.45;;;;;11.60;102293.00;;;;4991930;28;20201;-76
2022/03/16 01:10:56;;;;;;;11.27;7.63;;;;;11.60;102298.00;;;;4992157;28;20320;-75
2022/03/16 01:13:23;;;;;;;10.00;7.80;;;;;11.60;102296.00;;;;4999351;28;20235;-76
2022/03/16 01:15:51;;;;;;;9.77;7.15;;;;;11.60;102293.00;;;;5009197;28;20251;-76
2022/03/16 01:18:18;;;;;;;11.18;7.55;;;;;11.60;102289.00;;;;4992046;28;20193;-76
2022/03/16 01:20:46;;;;;;;12.80;9.07;;;;;11.50;102291.00;;;;4990811;28;20197;-76
2022/03/16 01:23:14;;;;;;;10.13;7.78;;;;;11.50;102291.00;;;;4992384;28;20260;-76
2022/03/16 01:25:41;;;;;;;12.07;8.18;;;;;11.50;102291.00;;;;4993100;28;20622;-76
2022/03/16 01:28:08;;;;;;;11.23;8.55;;;;;11.50;102286.00;;;;4993314;28;20601;-76
2022/03/16 01:30:35;;;;;;;14.48;9.27;;;;;11.50;102284.00;;;;4998556;28;20683;-76
2022/03/16 01:33:03;;;;;;;9.93;7.63;;;;;11.50;102285.00;;;;4992173;28;20232;-76
2022/03/16 01:35:30;;;;;;;11.25;8.68;;;;;11.50;102286.00;;;;4992567;28;20248;-76
2022/03/16 01:37:59;;;;;;;12.10;9.30;;;;;11.40;102286.00;;;;4993550;28;20619;-76
2022/03/16 01:40:26;;;;;;;13.13;8.98;;;;;11.50;102280.00;;;;4992608;28;20194;-76
2022/03/16 01:42:53;;;;;;;12.85;9.05;;;;;11.40;102286.00;;;;4991475;28;20251;-76
2022/03/16 01:45:20;;;;;;;13.57;9.10;;;;;11.40;102285.00;;;;5003228;28;20194;-76
2022/03/16 01:47:48;;;;;;;13.00;8.73;;;;;11.40;102279.00;;;;4995807;28;20206;-76
2022/03/16 01:50:15;;;;;;;11.57;8.68;;;;;11.40;102282.00;;;;4992596;28;20691;-76
2022/03/16 01:52:43;;;;;;;13.48;9.73;;;;;11.40;102274.00;;;;4993366;28;20209;-76
2022/03/16 01:55:12;;;;;;;13.32;9.48;;;;;11.40;102286.00;;;;4993543;28;20201;-75
2022/03/16 01:57:42;;;;;;;14.73;9.93;;;;;11.40;102283.00;;;;4993233;28;20201;-76
2022/03/16 02:00:10;;;;;;;13.93;9.80;;;;;11.40;102277.00;;;;4994237;28;20205;-76
2022/03/16 02:02:37;;;;;;;12.35;8.75;;;;;11.40;102284.00;;;;4991504;28;20221;-75
2022/03/16 02:05:05;;;;;;;13.30;9.50;;;;;11.40;102279.00;;;;4992284;28;20206;-75
2022/03/16 02:07:33;;;;;;;12.95;9.23;;;;;11.40;102278.00;;;;4992801;28;21335;-75
2022/03/16 02:10:05;;;;;;;11.60;8.65;;;;;11.40;102275.00;;;;4994541;28;20201;-76
2022/03/16 02:12:43;;;;;;;13.60;9.43;;;;;11.30;102266.00;;;;4994558;28;20221;-75
2022/03/16 02:15:11;;;;;;;13.90;9.73;;;;;11.40;102273.00;;;;4994369;28;20704;-76
2022/03/16 02:17:39;;;;;;;15.70;10.10;;;;;11.40;102271.00;;;;4991727;28;20284;-76
2022/03/16 02:20:08;;;;;;;13.32;9.70;;;;;11.30;102266.00;;;;4992257;28;20194;-76
2022/03/16 02:22:37;;;;;;;13.30;9.30;;;;;11.30;102276.00;;;;5009414;28;20204;-76
2022/03/16 02:25:09;;;;;;;13.73;9.95;;;;;11.30;102268.00;;;;4993605;28;20673;-76
2022/03/16 02:27:40;;;;;;;12.23;8.73;;;;;11.30;102274.00;;;;4992276;28;20193;-75
2022/03/16 02:30:09;;;;;;;13.32;9.70;;;;;11.40;102265.00;;;;4986834;28;20301;-75
2022/03/16 02:32:36;;;;;;;14.13;9.35;;;;;11.40;102266.00;;;;4990475;28;20229;-76
2022/03/16 02:35:04;;;;;;;13.02;9.13;;;;;11.40;102259.00;;;;4991707;28;20209;-75
2022/03/16 02:37:31;;;;;;;13.85;10.18;;;;;11.30;102256.00;;;;4985134;28;20233;-76
2022/03/16 02:39:59;;;;;;;14.02;9.65;;;;;11.40;102250.00;;;;5002058;28;20597;-76
2022/03/16 02:42:28;;;;;;;12.88;9.80;;;;;11.30;102241.00;;;;4991417;28;20197;-76
2022/03/16 02:44:55;;;;;;;14.98;10.18;;;;;11.40;102234.00;;;;4990425;28;20201;-75
2022/03/16 02:47:24;;;;;;;15.95;9.85;;;;;11.40;102222.00;;;;4991185;28;20210;-76
2022/03/16 02:49:51;;;;;;;14.00;9.50;;;;;11.40;102225.00;;;;4991729;28;20739;-76
2022/03/16 02:52:19;;;;;;;13.95;9.73;;;;;11.40;102228.00;;;;4991307;28;20575;-76
2022/03/16 02:54:46;;;;;;;13.60;9.90;;;;;11.40;102226.00;;;;4992741;28;20229;-76
2022/03/16 02:57:16;;;;;;;11.52;7.93;;;;;11.40;102228.00;;;;4991864;28;20200;-75
2022/03/16 02:59:44;;;;;;;12.80;8.25;;;;;11.40;102228.00;;;;4991054;28;20606;-75
2022/03/16 03:02:12;;;;;;;11.75;7.88;;;;;11.40;102246.00;;;;4989959;28;20803;-75
2022/03/16 03:04:40;;;;;;;12.90;8.93;;;;;11.40;102233.00;;;;4989466;28;20204;-76
2022/03/16 03:07:08;;;;;;;11.60;8.32;;;;;11.40;102236.00;;;;4990338;28;20197;-76
2022/03/16 03:09:35;;;;;;;11.35;7.88;;;;;11.40;102232.00;;;;4991543;28;20202;-75
2022/03/16 03:12:03;;;;;;;12.00;8.30;;;;;11.50;102233.00;;;;4995334;28;20699;-76
2022/03/16 03:14:31;;;;;;;13.32;7.85;;;;;11.50;102220.00;;;;4993164;28;20236;-76
2022/03/16 03:17:00;;;;;;;12.05;8.10;;;;;11.50;102222.00;;;;4990946;28;20296;-75
2022/03/16 03:19:27;;;;;;;12.98;8.77;;;;;11.50;102226.00;;;;4988535;28;20198;-76
2022/03/16 03:21:55;;;;;;;11.30;8.07;;;;;11.50;102229.00;;;;4984083;28;20260;-76
2022/03/16 03:24:22;;;;;;;11.57;8.10;;;;;11.50;102231.00;;;;4991591;28;20208;-76
2022/03/16 03:26:50;;;;;;;14.23;8.35;;;;;11.50;102229.00;;;;4991198;28;20607;-76
2022/03/16 03:29:17;;;;;;;11.88;8.60;;;;;11.50;102232.00;;;;4989847;28;20210;-75
2022/03/16 03:31:45;;;;;;;13.75;8.30;;;;;11.50;102238.00;;;;4989489;28;20206;-75
2022/03/16 03:34:13;;;;;;;15.38;9.70;;;;;11.50;102243.00;;;;4991863;28;20213;-76
2022/03/16 03:36:41;;;;;;;14.63;8.93;;;;;11.40;102243.00;;;;4991217;28;20205;-76
2022/03/16 03:39:08;;;;;;;11.40;8.70;;;;;11.40;102232.00;;;;4989993;28;20723;-75
2022/03/16 03:41:35;;;;;;;12.52;9.10;;;;;11.40;102228.00;;;;4990874;28;20186;-76
2022/03/16 03:44:04;;;;;;;13.88;9.25;;;;;11.40;102237.00;;;;4991174;28;20385;-76
2022/03/16 03:46:31;;;;;;;12.57;9.15;;;;;11.40;102231.00;;;;4999032;28;20201;-76
2022/03/16 03:48:58;;;;;;;11.43;8.45;;;;;11.40;102225.00;;;;4991539;28;20687;-76
2022/03/16 03:51:27;;;;;;;12.88;9.05;;;;;11.40;102221.00;;;;4988516;28;20256;-75
2022/03/16 03:53:54;;;;;;;12.30;8.35;;;;;11.40;102221.00;;;;4982481;28;20229;-76
2022/03/16 03:56:21;;;;;;;13.40;8.60;;;;;11.40;102219.00;;;;4992083;28;20186;-76
2022/03/16 03:58:48;;;;;;;10.85;8.07;;;;;11.40;102218.00;;;;4991080;28;20574;-76
2022/03/16 04:01:16;;;;;;;12.68;8.63;;;;;11.40;102223.00;;;;4991096;28;20264;-76
2022/03/16 04:03:43;;;;;;;11.40;7.80;;;;;11.40;102216.00;;;;4995936;28;20549;-76
2022/03/16 04:06:10;;;;;;;11.75;8.05;;;;;11.40;102210.00;;;;5001882;28;20289;-76
2022/03/16 04:08:39;;;;;;;13.50;8.85;;;;;11.40;102210.00;;;;4990605;28;20206;-75
2022/03/16 04:11:07;;;;;;;12.05;8.38;;;;;11.50;102207.00;;;;4990440;28;20540;-75
2022/03/16 04:13:34;;;;;;;10.95;8.00;;;;;11.50;102211.00;;;;4991902;28;20316;-76
2022/03/16 04:16:01;;;;;;;12.05;8.10;;;;;11.50;102212.00;;;;4996306;28;20241;-76
2022/03/16 04:18:28;;;;;;;12.80;8.25;;;;;11.50;102211.00;;;;4996567;28;20194;-76
2022/03/16 04:20:55;;;;;;;11.70;7.90;;;;;11.50;102220.00;;;;4998282;28;20214;-76
2022/03/16 04:23:23;;;;;;;10.40;7.13;;;;;11.50;102217.00;;;;4993249;28;20189;-76
2022/03/16 04:25:52;;;;;;;10.40;7.50;;;;;11.50;102214.00;;;;4994971;28;20217;-76
2022/03/16 04:28:19;;;;;;;11.00;8.02;;;;;11.50;102216.00;;;;4996352;28;20209;-76
2022/03/16 04:30:46;;;;;;;9.30;7.55;;;;;11.60;102211.00;;;;4995201;28;20679;-76
2022/03/16 04:33:14;;;;;;;10.20;7.50;;;;;11.50;102201.00;;;;4988781;28;20213;-76
2022/03/16 04:35:44;;;;;;;11.43;8.00;;;;;11.60;102203.00;;;;4992984;28;20695;-75
2022/03/16 04:38:11;;;;;;;11.30;8.10;;;;;11.60;102193.00;;;;4996756;28;20209;-75
2022/03/16 04:40:38;;;;;;;9.57;7.40;;;;;11.60;102199.00;;;;4985439;28;20214;-76
2022/03/16 04:43:07;;;;;;;11.30;7.35;;;;;11.60;102192.00;;;;4992369;28;20252;-76
2022/03/16 04:45:37;;;;;;;11.23;7.53;;;;;11.60;102205.00;;;;4979462;28;20197;-76
2022/03/16 04:48:07;;;;;;;9.77;7.20;;;;;11.60;102215.00;;;;4991771;28;20917;-76
2022/03/16 04:50:34;;;;;;;9.13;7.00;;;;;11.60;102215.00;;;;4991460;28;20209;-75
2022/03/16 04:53:03;;;;;;;11.60;7.57;;;;;11.60;102208.00;;;;4993041;28;20205;-76
2022/03/16 04:55:32;;;;;;;11.68;8.20;;;;;11.70;102210.00;;;;4998431;28;20208;-76
2022/03/16 04:58:00;;;;;;;10.30;7.68;;;;;11.70;102213.00;;;;4990256;28;20209;-75
2022/03/16 05:00:29;;;;;;;9.98;7.88;;;;;11.70;102208.00;;;;4991161;28;20297;-75
2022/03/16 05:02:56;;;;;;;11.32;8.20;;;;;11.70;102215.00;;;;4992356;28;20206;-75
2022/03/16 05:05:23;;;;;;;10.10;7.10;;;;;11.70;102211.00;;;;4991411;28;20582;-76
2022/03/16 05:07:50;;;;;;;10.65;7.45;;;;;11.70;102220.00;;;;4991852;28;20197;-76
2022/03/16 05:10:18;;;;;;;11.43;8.00;;;;;11.70;102219.00;;;;4988814;28;20205;-76
2022/03/16 05:12:46;;;;;;;11.07;7.90;;;;;11.70;102219.00;;;;4994293;28;20209;-75
2022/03/16 05:15:15;;;;;;;9.77;6.85;;;;;11.70;102222.00;;;;4991488;28;20662;-75
2022/03/16 05:17:46;;;;;;;10.10;7.78;;;;;11.70;102222.00;;;;4992183;28;20190;-76
2022/03/16 05:20:13;;;;;;;10.52;8.27;;;;;11.70;102220.00;;;;4990447;28;20652;-76
2022/03/16 05:22:44;;;;;;;12.65;8.60;;;;;11.70;102216.00;;;;4990468;28;20205;-75
2022/03/16 05:25:12;;;;;;;12.20;8.32;;;;;11.70;102212.00;;;;4989491;28;20233;-75
2022/03/16 05:27:40;;;;;;;10.82;7.22;;;;;11.70;102212.00;;;;4981172;28;20202;-76
2022/03/16 05:30:08;;;;;;;9.63;8.00;;;;;11.70;102218.00;;;;4992344;28;20205;-76
2022/03/16 05:32:36;;;;;;;11.25;7.60;;;;;11.70;102214.00;;;;4989041;28;20205;-75
2022/03/16 05:35:06;;;;;;;12.27;8.07;;;;;11.60;102225.00;;;;4991153;28;20225;-76
2022/03/16 05:37:33;;;;;;;11.10;8.35;;;;;11.70;102223.00;;;;4987600;28;20209;-76
2022/03/16 05:40:00;;;;;;;10.75;7.70;;;;;11.70;102225.00;;;;4989203;28;20938;-76
2022/03/16 05:42:28;;;;;;;10.20;7.55;;;;;11.70;102217.00;;;;4990267;28;20198;-75
2022/03/16 05:44:55;;;;;;;11.95;7.65;;;;;11.70;102228.00;;;;4987373;28;20201;-75
2022/03/16 05:47:23;;;;;;;11.15;7.72;;;;;11.70;102230.00;;;;4984697;28;20320;-76
2022/03/16 05:49:52;;;;;;;9.07;7.10;;;;;11.70;102226.00;;;;4986583;28;20252;-75
2022/03/16 05:52:21;;;;;;;10.68;6.70;;;;;11.70;102229.00;;;;4989607;28;20205;-75
2022/03/16 05:54:49;;;;;;;12.27;8.23;;;;;11.70;102236.00;;;;4989359;28;20336;-75
2022/03/16 05:57:17;;;;;;;9.27;7.35;;;;;11.70;102235.00;;;;4988728;28;20190;-75
2022/03/16 05:59:45;;;;;;;8.98;6.82;;;;;11.70;102237.00;;;;4989823;28;20193;-75
2022/03/16 06:02:13;;;;;;;9.68;6.97;;;;;11.70;102240.00;;;;4987655;28;20226;-75
2022/03/16 06:04:43;;;;;;;8.65;6.47;;;;;11.70;102247.00;;;;4990796;28;20228;-75
2022/03/16 06:07:11;;;;;;;8.75;6.63;;;;;11.70;102237.00;;;;4991412;28;20206;-76
2022/03/16 06:09:40;;;;;;;7.45;6.03;;;;;11.70;102237.00;;;;4990574;28;20204;-75
2022/03/16 06:12:09;;;;;;;8.23;6.22;;;;;11.70;102237.00;;;;4991334;28;20248;-76
2022/03/16 06:14:36;;;;;;;9.35;5.97;;;;;11.70;102237.00;;;;4991584;28;20295;-74
2022/03/16 06:17:04;;;;;;;9.10;6.53;;;;;11.80;102237.00;;;;4985943;28;20730;-73
2022/03/16 06:19:40;;;;;;;11.98;6.10;;;;;11.70;102229.00;;;;4990797;28;20193;-74
2022/03/16 06:22:07;;;;;;;8.85;5.53;;;;;11.80;102231.00;;;;5002652;28;20197;-74
2022/03/16 06:24:34;;;;;;;7.60;5.55;;;;;11.80;102231.00;;;;4996493;28;20205;-74
2022/03/16 06:27:04;;;;;;;8.18;5.82;;;;;11.80;102243.00;;;;4990089;28;20217;-74
2022/03/16 06:29:31;;;;;;;8.30;6.05;;;;;11.90;102238.00;;;;4989468;28;20197;-74
2022/03/16 06:31:58;;;;;;;8.50;4.93;;;;;11.90;102239.00;;;;4978241;28;20642;-74
2022/03/16 06:34:26;;;;;;;6.78;5.38;;;;;11.90;102242.00;;;;4979540;28;20232;-73
2022/03/16 06:36:53;;;;;;;8.52;5.55;;;;;11.90;102231.00;;;;4998388;28;20334;-73
2022/03/16 06:39:20;;;;;;;8.07;5.07;;;;;12.00;102239.00;;;;5006351;28;20207;-74
2022/03/16 06:41:48;;;;;;;7.88;5.22;;;;;12.00;102243.00;;;;4987267;28;20198;-73
2022/03/16 06:44:16;;;;;;;8.02;5.22;;;;;12.00;102236.00;;;;4988262;28;20205;-73
2022/03/16 06:46:44;;;;;;;7.43;5.22;;;;;12.10;102229.00;;;;4988854;28;20222;-73
2022/03/16 06:49:11;;;;;;;7.97;5.88;;;;;12.10;102233.00;;;;4988303;28;20264;-73
2022/03/16 06:51:38;;;;;;;8.73;5.03;;;;;12.20;102227.00;;;;4983757;28;20635;-75
2022/03/16 06:54:05;;;;;;;8.63;5.60;;;;;12.20;102226.00;;;;5001035;28;20636;-75
2022/03/16 06:56:32;;;;;;;7.60;5.38;;;;;12.30;102231.00;;;;4998221;28;20201;-74
2022/03/16 06:59:00;;;;;;;8.18;5.55;;;;;12.30;102234.00;;;;4988792;28;20201;-75
2022/03/16 07:01:28;;;;;;;7.75;5.28;;;;;12.40;102243.00;;;;4981199;28;20190;-75
2022/03/16 07:03:55;;;;;;;7.05;5.07;;;;;12.40;102238.00;;;;4973782;28;20205;-74
2022/03/16 07:06:23;;;;;;;7.93;6.15;;;;;12.50;102243.00;;;;4987914;28;20248;-75
2022/03/16 07:08:50;;;;;;;7.20;5.13;;;;;12.60;102241.00;;;;4987955;28;20201;-75
2022/03/16 07:11:18;;;;;;;7.88;5.70;;;;;12.60;102241.00;;;;5002578;28;20221;-75
2022/03/16 07:14:30;;;;;;;9.65;5.40;;;;;12.70;102242.00;;;;5008924;28;20290;-75
2022/03/16 07:16:34;;;;;;;7.97;5.00;;;;;12.80;102238.00;;;;5008965;28;20207;-75
2022/03/16 07:19:04;;;;;;;9.43;5.82;;;;;12.80;102234.00;;;;5009510;28;20970;-74
2022/03/16 07:21:32;;;;;;;8.95;5.78;;;;;12.90;102231.00;;;;4987918;28;20201;-74
2022/03/16 07:23:59;;;;;;;6.90;5.32;;;;;13.00;102228.00;;;;4989739;28;20197;-74
2022/03/16 07:26:27;;;;;;;11.27;5.63;;;;;13.10;102236.00;;;;4989426;28;20259;-75
2022/03/16 07:28:56;;;;;;;8.02;6.20;;;;;13.10;102230.00;;;;5008133;28;20209;-75
2022/03/16 07:31:23;;;;;;;8.68;5.35;;;;;13.20;102220.00;;;;4982854;28;20213;-75
2022/03/16 07:33:52;;;;;;;7.45;5.30;;;;;13.30;102224.00;;;;4984042;28;20198;-74
2022/03/16 07:36:19;;;;;;;7.78;5.40;;;;;13.40;102220.00;;;;4988243;28;20205;-74
2022/03/16 07:38:47;;;;;;;7.65;5.22;;;;;13.50;102217.00;;;;4989323;28;20259;-74
2022/03/16 07:41:15;;;;;;;8.35;5.32;;;;;13.50;102210.00;;;;4988651;28;20292;-74
2022/03/16 07:43:42;;;;;;;6.28;4.90;;;;;13.60;102213.00;;;;4989526;28;20726;-74
2022/03/16 07:46:10;;;;;;;7.82;5.78;;;;;13.70;102206.00;;;;5008244;28;20193;-74
2022/03/16 07:48:38;;;;;;;10.40;5.57;;;;;13.70;102200.00;;;;5009669;28;20208;-74
2022/03/16 07:51:07;;;;;;;7.47;5.40;;;;;13.80;102199.00;;;;5001199;28;20668;-75
2022/03/16 07:53:34;;;;;;;7.00;4.80;;;;;13.90;102188.00;;;;4992753;28;20225;-74
2022/03/16 07:56:02;;;;;;;6.63;5.13;;;;;14.00;102187.00;;;;4992968;28;20225;-74
2022/03/16 07:58:29;;;;;;;6.53;4.80;;;;;14.00;102191.00;;;;4992794;28;21020;-75
2022/03/16 08:00:56;;;;;;;7.10;4.93;;;;;14.10;102181.00;;;;4995935;28;20212;-75
2022/03/16 08:03:23;;;;;;;7.45;4.60;;;;;14.20;102177.00;;;;5011906;28;20227;-74
2022/03/16 08:05:51;;;;;;;6.88;4.43;;;;;14.30;102178.00;;;;5010645;28;20189;-74
2022/03/16 08:08:19;;;;;;;6.70;4.75;;;;;14.40;102170.00;;;;5011078;28;20204;-75
2022/03/16 08:10:46;;;;;;;6.30;4.88;;;;;14.40;102164.00;;;;5011428;28;20204;-74
2022/03/16 08:13:14;;;;;;;5.35;4.22;;;;;14.50;102173.00;;;;5011388;28;20655;-75
2022/03/16 08:15:41;;;;;;;6.97;4.85;;;;;14.60;102169.00;;;;5011593;28;20232;-75
2022/03/16 08:18:08;;;;;;;6.80;5.10;;;;;14.60;102166.00;;;;5011216;28;20204;-75
2022/03/16 08:20:35;;;;;;;6.38;4.85;;;;;14.70;102176.00;;;;4994181;28;20771;-75
2022/03/16 08:23:04;;;;;;;7.38;5.18;;;;;14.80;102177.00;;;;4991014;28;20200;-75
2022/03/16 08:25:33;;;;;;;6.15;4.90;;;;;14.80;102180.00;;;;4991603;28;20746;-74
2022/03/16 08:28:01;;;;;;;6.47;5.07;;;;;14.90;102178.00;;;;4991631;28;20194;-74
2022/03/16 08:30:28;;;;;;;9.55;6.28;;;;;15.00;102185.00;;;;4991552;28;20193;-75
2022/03/16 08:32:56;;;;;;;8.48;5.40;;;;;15.10;102166.00;;;;4984430;28;20209;-76
2022/03/16 08:35:23;;;;;;;8.25;4.95;;;;;15.20;102172.00;;;;4993830;28;20707;-76
2022/03/16 08:37:50;;;;;;;6.00;5.00;;;;;15.20;102179.00;;;;4994631;28;20208;-76
2022/03/16 08:40:18;;;;;;;7.10;5.18;;;;;15.30;102168.00;;;;4996827;28;20194;-76
2022/03/16 08:42:48;;;;;;;8.75;5.10;;;;;15.40;102162.00;;;;4987891;28;20205;-76
2022/03/16 08:45:15;;;;;;;7.13;5.13;;;;;15.40;102166.00;;;;4995518;28;20216;-76
2022/03/16 08:47:43;;;;;;;7.97;5.13;;;;;15.50;102162.00;;;;4991486;28;20202;-75
2022/03/16 08:50:11;;;;;;;6.07;5.18;;;;;15.50;102162.00;;;;4991795;28;20198;-75
2022/03/16 08:52:38;;;;;;;7.30;5.57;;;;;15.60;102168.00;;;;4995867;28;20205;-76
2022/03/16 08:55:07;;;;;;;5.63;4.60;;;;;15.70;102150.00;;;;4989709;28;20225;-74
2022/03/16 08:57:34;;;;;;;7.32;5.68;;;;;15.80;102159.00;;;;4991404;28;20204;-76
2022/03/16 09:00:03;;;;;;;6.47;5.68;;;;;15.80;102148.00;;;;4988848;28;20876;-76
2022/03/16 09:02:30;;;;;;;9.45;5.93;;;;;15.80;102156.00;;;;4988923;28;20226;-75
2022/03/16 09:04:58;;;;;;;7.20;5.53;;;;;15.90;102159.00;;;;4988701;28;20197;-75
2022/03/16 09:07:25;;;;;;;6.57;5.30;;;;;15.90;102154.00;;;;4989196;28;20668;-75
2022/03/16 09:09:52;;;;;;;8.13;5.47;;;;;15.90;102169.00;;;;5000489;28;20208;-75
2022/03/16 09:12:19;;;;;;;7.97;5.32;;;;;16.00;102166.00;;;;4992116;28;20252;-75
2022/03/16 09:14:46;;;;;;;7.15;5.85;;;;;16.00;102164.00;;;;5004631;28;20713;-75
2022/03/16 09:17:17;;;;;;;8.35;5.82;;;;;16.10;102169.00;;;;5006203;28;20197;-74
2022/03/16 09:19:44;;;;;;;5.97;5.03;;;;;16.10;102174.00;;;;4987081;28;20202;-75
2022/03/16 09:22:12;;;;;;;7.72;5.78;;;;;16.20;102181.00;;;;4988414;28;20190;-75
2022/03/16 09:24:39;;;;;;;6.88;5.82;;;;;16.20;102177.00;;;;4989260;28;20221;-75
2022/03/16 09:27:10;;;;;;;7.10;5.10;;;;;16.30;102176.00;;;;4989633;28;20221;-75
2022/03/16 09:29:37;;;;;;;6.22;4.95;;;;;16.30;102186.00;;;;4990060;28;20743;-74
2022/03/16 09:32:07;;;;;;;5.63;4.43;;;;;16.40;102177.00;;;;4988941;28;20219;-75
2022/03/16 09:34:35;;;;;;;6.30;4.93;;;;;16.50;102175.00;;;;4988909;28;20284;-75
2022/03/16 09:37:03;;;;;;;6.15;4.60;;;;;16.50;102174.00;;;;4987753;28;20272;-75
2022/03/16 09:39:30;;;;;;;6.43;5.32;;;;;16.60;102168.00;;;;4989551;28;20276;-75
2022/03/16 09:41:59;;;;;;;7.25;4.78;;;;;16.70;102171.00;;;;4989536;28;20201;-75
2022/03/16 09:44:28;;;;;;;7.15;5.13;;;;;16.80;102181.00;;;;4990334;28;20197;-75
2022/03/16 09:46:57;;;;;;;6.18;4.95;;;;;16.80;102172.00;;;;5007781;28;20766;-74
2022/03/16 09:49:26;;;;;;;5.43;4.50;;;;;16.90;102168.00;;;;4989592;28;20665;-74
2022/03/16 09:51:56;;;;;;;8.77;5.10;;;;;17.00;102159.00;;;;4989788;28;20205;-75
2022/03/16 09:54:23;;;;;;;8.70;4.78;;;;;17.10;102161.00;;;;4988414;28;20201;-76
2022/03/16 09:56:52;;;;;;;6.28;4.63;;;;;17.20;102168.00;;;;4988526;28;20345;-75
2022/03/16 09:59:21;;;;;;;5.03;4.07;;;;;17.20;102162.00;;;;4988308;28;20213;-75
2022/03/16 10:01:48;;;;;;;5.97;4.68;;;;;17.30;102166.00;;;;4989969;28;20312;-76
2022/03/16 10:04:29;;;;;;;5.95;4.47;;;;;17.30;102169.00;;;;4983323;28;20295;-75
2022/03/16 10:07:00;;;;;;;5.40;4.05;;;;;17.40;102162.00;;;;4986216;28;20946;-75
2022/03/16 10:15:07;;;;;;;5.38;4.22;;;;;17.60;102169.00;;;;4970076;28;20608;-75
2022/03/16 10:17:44;;;;;;;5.32;4.68;;;;;17.70;102178.00;;;;4989159;28;20189;-76
2022/03/16 10:20:19;;;;;;;4.70;3.70;;;;;17.80;102161.00;;;;4988897;28;20201;-75
2022/03/16 10:22:56;;;;;;;5.95;4.22;;;;;17.80;102174.00;;;;4987252;28;20296;-76
2022/03/16 10:25:24;;;;;;;4.65;4.03;;;;;17.90;102178.00;;;;4989135;28;20293;-76
2022/03/16 10:27:52;;;;;;;6.43;4.30;;;;;18.00;102165.00;;;;4987845;28;20206;-75
2022/03/16 10:30:20;;;;;;;5.82;4.53;;;;;18.10;102169.00;;;;4985783;28;20656;-76
2022/03/16 10:32:56;;;;;;;4.78;3.92;;;;;18.10;102167.00;;;;4987120;28;20284;-76
2022/03/16 10:35:25;;;;;;;5.22;4.18;;;;;18.20;102160.00;;;;4985807;28;20225;-75
2022/03/16 10:38:06;;;;;;;5.22;4.35;;;;;18.40;102158.00;;;;4988645;28;21007;-76
2022/03/16 10:40:34;;;;;;;5.75;4.60;;;;;18.50;102159.00;;;;4988491;28;20206;-75
2022/03/16 10:48:59;;;;;;;8.55;5.90;;;;;18.70;102150.00;;;;4970460;28;20201;-75
2022/03/16 10:51:27;;;;;;;5.45;4.63;;;;;18.80;102153.00;;;;4989052;28;20292;-75
2022/03/16 10:54:00;;;;;;;6.05;4.93;;;;;18.90;102141.00;;;;4985958;28;20642;-75
2022/03/16 10:56:29;;;;;;;5.97;4.50;;;;;19.00;102141.00;;;;4998376;28;20210;-74
2022/03/16 10:58:58;;;;;;;5.60;4.45;;;;;19.10;102139.00;;;;4993155;28;20206;-75
2022/03/16 11:01:27;;;;;;;5.82;4.50;;;;;19.20;102128.00;;;;4981568;28;20191;-75
2022/03/16 11:03:58;;;;;;;5.55;4.13;;;;;19.30;102137.00;;;;4975373;28;20198;-75
2022/03/16 11:06:26;;;;;;;6.05;5.07;;;;;19.40;102120.00;;;;4988588;28;20189;-76
2022/03/16 11:08:55;;;;;;;5.65;4.45;;;;;19.50;102118.00;;;;4989159;28;20705;-76
2022/03/16 11:14:11;;;;;;;6.45;4.90;;;;;19.70;102119.00;;;;4988633;28;20367;-75
2022/03/16 11:16:38;;;;;;;6.22;4.72;;;;;19.80;102113.00;;;;4988390;28;20221;-76
2022/03/16 11:19:07;;;;;;;6.00;4.85;;;;;19.80;102122.00;;;;4988670;28;20232;-76
2022/03/16 11:21:45;;;;;;;5.65;4.85;;;;;19.90;102116.00;;;;4988920;28;20201;-76
2022/03/16 11:24:18;;;;;;;4.97;3.97;;;;;19.90;102115.00;;;;4988687;28;20634;-76
2022/03/16 11:27:22;;;;;;;4.63;4.18;;;;;20.00;102116.00;;;;5006074;28;20204;-75
2022/03/16 11:30:01;;;;;;;5.13;4.22;;;;;20.10;102115.00;;;;4948660;28;20209;-76
2022/03/16 11:32:35;;;;;;;6.65;4.15;;;;;20.20;102102.00;;;;4984611;28;20560;-76
2022/03/16 11:35:04;;;;;;;5.15;4.32;;;;;20.30;102113.00;;;;4986565;28;20359;-75
2022/03/16 11:37:35;;;;;;;6.75;4.60;;;;;20.30;102106.00;;;;4986506;28;20189;-76
2022/03/16 11:40:11;;;;;;;5.28;4.15;;;;;20.40;102110.00;;;;4987424;28;20233;-76
2022/03/16 11:42:39;;;;;;;5.63;4.53;;;;;20.50;102106.00;;;;4989081;28;20244;-76
2022/03/16 11:45:33;;;;;;;5.97;4.65;;;;;20.50;102109.00;;;;4987294;28;20204;-77
2022/03/16 11:48:01;;;;;;;7.10;3.92;;;;;20.70;102109.00;;;;4988228;28;20990;-76
2022/03/16 11:50:28;;;;;;;5.18;4.22;;;;;20.70;102112.00;;;;4988490;28;20204;-75
2022/03/16 11:53:07;;;;;;;6.38;4.35;;;;;20.80;102111.00;;;;4988613;28;21058;-75
2022/03/16 11:55:44;;;;;;;5.47;4.43;;;;;20.70;102117.00;;;;4987716;28;20308;-74
2022/03/16 11:58:28;;;;;;;6.05;4.95;;;;;20.70;102119.00;;;;4988749;28;20202;-75
2022/03/16 12:01:24;;;;;;;6.28;4.70;;;;;20.80;102120.00;;;;4999427;28;20727;-75
2022/03/16 12:03:58;;;;;;;4.80;4.30;;;;;20.90;102108.00;;;;4979146;28;20225;-75
2022/03/16 12:06:30;;;;;;;5.75;5.10;;;;;21.00;102122.00;;;;4987066;28;20208;-75
2022/03/16 12:09:03;;;;;;;5.53;4.55;;;;;21.10;102125.00;;;;4986666;28;20240;-75
2022/03/16 12:15:21;;;;;;;5.97;4.22;;;;;21.00;102117.00;;;;4988441;28;20718;-75
2022/03/16 12:18:20;;;;;;;6.20;4.95;;;;;21.10;102112.00;;;;4990265;28;20582;-75
2022/03/16 12:20:53;;;;;;;5.63;4.70;;;;;21.20;102112.00;;;;4987850;28;20197;-75
2022/03/16 12:23:58;;;;;;;8.23;5.35;;;;;21.20;102105.00;;;;4978440;28;20202;-75
2022/03/16 12:26:30;;;;;;;5.18;4.68;;;;;21.30;102108.00;;;;4976512;28;20201;-75
2022/03/16 12:29:07;;;;;;;5.78;4.85;;;;;21.30;102103.00;;;;4987231;28;20194;-74
2022/03/16 12:31:42;;;;;;;6.15;5.05;;;;;21.40;102101.00;;;;4986115;28;20194;-75